Briarwood Trace, Illinois
Current Conditions -  °F | °C
As of 3:52 AM on Monday 22 Dec 2014 (Local Time) from KMDH Reporting Station
Overcast Overcast  
Wind Chill: 37°   Ceiling: 8000
Heat Index: 40°   Visibility: 10mi
Dew Point: 32°   Wind: 5mph
Humidity: 73%   Direction: 130°SE
Pressure: 29.88"   Gusts: NA
Location:  37.7248°N, 89.197°W
Report Text: KMDH 220952Z AUTO 13004KT 10SM FEW021 FEW027 OVC080 04/00 A2988 RMK AO2 SLP121 T00440000
Loading
Personal Weather Stations






























Interactive Weather Map New forecast layout! Learn more

10-Day Weather Forecast

Advertisements
Track Severe Weather on mobile